Time;durP1;ratioP1;P1;durP2;ratioP2;P2;SDS_P1;SDS_P2;PMS_P1;PMS_P2;Temp;Humidity;BMP_temperature;BMP_pressure;BME280_temperature;BME280_humidity;BME280_pressure;Samples;Min_cycle;Max_cycle;Signal;HPM_P1;HPM_P2
2021/12/26 00:00:10;;;;;;;5.40;4.00;;;2.70;99.90;;;;;;5013993;28;20468;-72
2021/12/26 00:02:37;;;;;;;6.53;4.37;;;2.70;99.90;;;;;;5031432;28;20600;-72
2021/12/26 00:05:04;;;;;;;4.70;3.93;;;2.70;99.90;;;;;;5010817;28;20521;-73
2021/12/26 00:07:30;;;;;;;7.10;4.90;;;2.80;99.90;;;;;;5011403;28;20471;-73
2021/12/26 00:09:56;;;;;;;10.73;5.00;;;2.80;99.90;;;;;;5013710;28;20562;-73
2021/12/26 00:12:22;;;;;;;10.77;5.23;;;2.80;99.90;;;;;;5048577;28;20549;-73
2021/12/26 00:14:48;;;;;;;11.10;5.80;;;2.90;99.90;;;;;;5028782;28;20227;-72
2021/12/26 00:17:14;;;;;;;7.53;4.77;;;2.90;99.90;;;;;;5030779;28;20310;-73
2021/12/26 00:19:40;;;;;;;7.53;5.17;;;2.90;99.90;;;;;;5028666;28;20312;-73
2021/12/26 00:22:06;;;;;;;6.77;4.27;;;2.90;99.90;;;;;;5030432;28;20985;-72
2021/12/26 00:24:31;;;;;;;5.30;4.30;;;2.90;99.90;;;;;;5031266;28;20273;-73
2021/12/26 00:26:57;;;;;;;9.17;4.60;;;2.90;99.90;;;;;;5028565;28;20311;-74
2021/12/26 00:29:23;;;;;;;7.50;4.73;;;2.90;99.90;;;;;;5031090;28;20591;-73
2021/12/26 00:31:49;;;;;;;11.70;4.50;;;2.90;99.90;;;;;;5029031;28;20216;-74
2021/12/26 00:34:15;;;;;;;8.90;4.77;;;2.90;99.90;;;;;;5031243;28;20583;-73
2021/12/26 00:36:40;;;;;;;6.30;4.47;;;2.90;99.90;;;;;;5033510;28;20247;-73
2021/12/26 00:39:07;;;;;;;9.13;4.43;;;2.90;99.90;;;;;;5011046;28;20547;-72
2021/12/26 00:41:33;;;;;;;8.93;4.87;;;2.90;99.90;;;;;;5009598;28;20300;-73
2021/12/26 00:43:59;;;;;;;11.53;5.43;;;2.90;99.90;;;;;;5026955;28;20455;-73
2021/12/26 00:46:25;;;;;;;5.70;4.20;;;2.90;99.90;;;;;;5010478;28;20463;-74
2021/12/26 00:48:51;;;;;;;9.70;5.33;;;2.90;99.90;;;;;;5007765;28;20235;-73
2021/12/26 00:51:16;;;;;;;7.93;5.00;;;2.90;99.90;;;;;;5018047;28;20538;-72
2021/12/26 00:53:42;;;;;;;9.23;3.80;;;2.90;99.90;;;;;;5026351;28;20216;-74
2021/12/26 00:56:08;;;;;;;7.13;4.80;;;2.80;99.90;;;;;;5010265;28;20227;-71
2021/12/26 00:58:34;;;;;;;6.17;4.37;;;2.90;99.90;;;;;;5012369;28;20282;-73
2021/12/26 01:01:00;;;;;;;9.37;5.23;;;2.80;99.90;;;;;;5027987;28;20490;-74
2021/12/26 01:03:27;;;;;;;8.00;4.63;;;2.90;99.90;;;;;;5029705;28;21048;-73
2021/12/26 01:05:56;;;;;;;9.50;4.53;;;2.90;99.90;;;;;;5027438;28;20220;-73
2021/12/26 01:08:30;;;;;;;6.30;4.50;;;2.90;99.90;;;;;;5046615;28;20566;-73
2021/12/26 01:10:58;;;;;;;9.50;4.60;;;2.90;99.90;;;;;;5015730;28;20478;-73
2021/12/26 01:16:09;;;;;;;7.47;4.40;;;2.90;99.90;;;;;;5025842;28;20466;-73
2021/12/26 01:18:38;;;;;;;8.23;4.20;;;2.90;99.90;;;;;;5026738;28;20468;-73
2021/12/26 01:21:17;;;;;;;6.40;4.20;;;2.80;99.90;;;;;;5025961;28;20455;-73
2021/12/26 01:23:55;;;;;;;7.63;4.00;;;2.80;99.90;;;;;;5007518;28;20465;-74
2021/12/26 01:26:22;;;;;;;7.70;4.93;;;2.80;99.90;;;;;;5010173;28;20533;-73
2021/12/26 01:28:48;;;;;;;7.30;4.50;;;2.80;99.90;;;;;;5008815;28;20458;-73
2021/12/26 01:31:24;;;;;;;7.93;4.67;;;2.70;99.90;;;;;;5010192;28;20534;-71
2021/12/26 01:34:12;;;;;;;6.10;4.43;;;2.60;99.90;;;;;;5010048;28;20461;-73
2021/12/26 01:37:04;;;;;;;9.37;4.90;;;2.70;99.90;;;;;;5023856;28;20546;-73
2021/12/26 01:39:46;;;;;;;5.20;4.10;;;2.70;99.90;;;;;;5007930;28;20463;-73
2021/12/26 01:42:33;;;;;;;6.13;4.67;;;2.70;99.90;;;;;;5025917;28;20524;-73
2021/12/26 01:45:22;;;;;;;7.13;4.93;;;2.70;99.90;;;;;;5010283;28;20470;-73
2021/12/26 01:48:04;;;;;;;9.20;5.00;;;2.80;99.90;;;;;;5008169;28;20470;-74
2021/12/26 01:50:34;;;;;;;6.50;4.63;;;2.70;99.90;;;;;;5009684;28;20459;-72
2021/12/26 01:53:01;;;;;;;9.77;5.00;;;2.70;99.90;;;;;;5006928;28;20457;-74
2021/12/26 01:55:39;;;;;;;9.13;4.87;;;2.70;99.90;;;;;;5008624;28;20463;-73
2021/12/26 01:58:08;;;;;;;7.70;4.50;;;2.70;99.90;;;;;;5018222;28;20299;-73
2021/12/26 02:00:35;;;;;;;6.33;4.53;;;2.70;99.90;;;;;;5035654;28;20455;-73
2021/12/26 02:03:01;;;;;;;7.47;4.03;;;2.70;99.90;;;;;;5006696;28;20460;-73
2021/12/26 02:05:26;;;;;;;8.03;4.33;;;2.70;99.90;;;;;;5021235;28;20466;-73
2021/12/26 02:07:59;;;;;;;10.67;4.70;;;2.70;99.90;;;;;;5027665;28;20226;-73
2021/12/26 02:10:25;;;;;;;7.27;4.50;;;2.70;99.90;;;;;;5021299;28;20467;-73
2021/12/26 02:12:51;;;;;;;6.50;4.60;;;2.70;99.90;;;;;;5007429;28;20254;-74
2021/12/26 02:15:17;;;;;;;5.40;3.63;;;2.70;99.90;;;;;;5009288;28;20467;-73
2021/12/26 02:17:52;;;;;;;7.47;4.17;;;2.70;99.90;;;;;;5023921;28;20289;-73
2021/12/26 02:20:48;;;;;;;5.97;4.57;;;2.70;99.90;;;;;;5009528;28;20455;-73
2021/12/26 02:23:24;;;;;;;5.53;4.43;;;2.70;99.90;;;;;;5025368;28;20459;-73
2021/12/26 02:28:35;;;;;;;7.70;4.70;;;2.70;99.90;;;;;;5026299;28;20472;-74
2021/12/26 02:31:00;;;;;;;7.63;4.67;;;2.60;99.90;;;;;;5007588;28;20489;-73
2021/12/26 02:33:32;;;;;;;6.23;4.70;;;2.60;99.90;;;;;;5009393;28;20660;-73
2021/12/26 02:35:58;;;;;;;6.63;4.13;;;2.70;99.90;;;;;;5023527;28;20473;-73
2021/12/26 02:38:24;;;;;;;8.33;4.60;;;2.70;99.90;;;;;;5009199;28;20463;-73
2021/12/26 02:40:52;;;;;;;6.87;4.40;;;2.70;99.90;;;;;;5007645;28;20515;-73
2021/12/26 02:43:20;;;;;;;9.60;5.00;;;2.70;99.90;;;;;;5009394;28;20684;-71
2021/12/26 02:45:46;;;;;;;8.23;5.03;;;2.70;99.90;;;;;;5023560;28;20470;-74
2021/12/26 02:48:12;;;;;;;6.67;5.03;;;2.80;99.90;;;;;;5025536;28;20513;-72
2021/12/26 02:50:41;;;;;;;9.53;4.93;;;2.80;99.90;;;;;;5017284;28;20459;-74
2021/12/26 02:53:09;;;;;;;10.97;5.90;;;2.70;99.90;;;;;;5008729;28;20487;-72
2021/12/26 02:55:35;;;;;;;8.70;4.57;;;2.70;99.90;;;;;;4992833;28;20475;-73
2021/12/26 02:58:05;;;;;;;10.03;5.10;;;2.70;99.90;;;;;;4991043;28;20538;-73
2021/12/26 03:00:43;;;;;;;6.77;4.33;;;2.70;99.90;;;;;;5016584;28;20460;-73
2021/12/26 03:03:09;;;;;;;7.80;4.83;;;2.70;99.90;;;;;;5028764;28;20453;-73
2021/12/26 03:05:39;;;;;;;7.53;3.83;;;2.70;99.90;;;;;;5032645;28;20462;-73
2021/12/26 03:08:07;;;;;;;7.57;4.40;;;2.70;99.90;;;;;;5016451;28;20223;-73
2021/12/26 03:10:34;;;;;;;8.60;4.67;;;2.70;99.90;;;;;;5023576;28;20876;-74
2021/12/26 03:13:03;;;;;;;8.23;4.77;;;2.70;99.90;;;;;;5010492;28;20455;-73
2021/12/26 03:15:30;;;;;;;7.73;5.10;;;2.70;99.90;;;;;;5012656;28;20853;-74
2021/12/26 03:17:56;;;;;;;9.30;5.57;;;2.70;99.90;;;;;;5010974;28;20466;-74
2021/12/26 03:20:25;;;;;;;7.53;5.20;;;2.70;99.90;;;;;;5008713;28;20530;-73
2021/12/26 03:22:51;;;;;;;9.93;5.43;;;2.70;99.90;;;;;;5010174;28;20890;-73
2021/12/26 03:25:19;;;;;;;7.90;4.53;;;2.70;99.90;;;;;;5012090;28;20463;-73
2021/12/26 03:27:46;;;;;;;7.73;5.00;;;2.70;99.90;;;;;;5028292;28;20478;-74
2021/12/26 03:30:14;;;;;;;8.53;5.47;;;2.70;99.90;;;;;;5012145;28;20458;-73
2021/12/26 03:32:41;;;;;;;9.83;5.60;;;2.70;99.90;;;;;;5009757;28;20447;-74
2021/12/26 03:35:07;;;;;;;10.97;4.80;;;2.70;99.90;;;;;;5012176;28;20589;-71
2021/12/26 03:37:34;;;;;;;8.87;5.20;;;2.80;99.90;;;;;;5011932;28;20501;-73
2021/12/26 03:40:07;;;;;;;8.27;4.50;;;2.70;99.90;;;;;;5001533;28;20994;-72
2021/12/26 03:42:33;;;;;;;8.00;4.20;;;2.70;99.90;;;;;;5012309;28;20455;-73
2021/12/26 03:44:59;;;;;;;9.87;5.00;;;2.70;99.90;;;;;;5010616;28;20991;-74
2021/12/26 03:47:25;;;;;;;8.50;4.67;;;2.70;99.90;;;;;;5011849;28;20517;-73
2021/12/26 03:49:53;;;;;;;9.63;5.17;;;2.70;99.90;;;;;;5026793;28;20538;-73
2021/12/26 03:52:22;;;;;;;9.07;5.50;;;2.70;99.90;;;;;;5028256;28;20463;-71
2021/12/26 03:54:48;;;;;;;9.97;5.23;;;2.70;99.90;;;;;;5010577;28;20489;-73
2021/12/26 03:57:14;;;;;;;8.57;4.77;;;2.70;99.90;;;;;;5011876;28;20939;-73
2021/12/26 03:59:40;;;;;;;8.73;5.17;;;2.70;99.90;;;;;;5010223;28;20459;-73
2021/12/26 04:02:07;;;;;;;6.33;4.60;;;2.80;99.90;;;;;;5026204;28;20508;-72
2021/12/26 04:04:33;;;;;;;11.73;5.67;;;2.80;99.90;;;;;;5027157;28;20483;-73
2021/12/26 04:06:59;;;;;;;8.87;4.33;;;2.80;99.90;;;;;;5009940;28;20871;-73
2021/12/26 04:09:25;;;;;;;9.27;5.60;;;2.70;99.90;;;;;;5012216;28;20307;-73
2021/12/26 04:11:51;;;;;;;6.80;5.40;;;2.70;99.90;;;;;;4990513;28;20225;-73
2021/12/26 04:14:19;;;;;;;12.20;5.87;;;2.70;99.90;;;;;;4986469;28;20735;-73
2021/12/26 04:16:45;;;;;;;10.73;5.30;;;2.70;99.90;;;;;;5009856;28;20543;-75
2021/12/26 04:19:11;;;;;;;10.17;4.80;;;2.70;99.90;;;;;;5011611;28;20213;-73
2021/12/26 04:21:37;;;;;;;9.60;5.83;;;2.70;99.90;;;;;;4993844;28;20461;-74
2021/12/26 04:24:04;;;;;;;8.77;5.23;;;2.70;99.90;;;;;;4995554;28;20482;-73
2021/12/26 04:26:30;;;;;;;8.70;5.07;;;2.70;99.90;;;;;;5011317;28;20213;-73
2021/12/26 04:28:56;;;;;;;9.30;5.03;;;2.60;99.90;;;;;;5009307;28;20459;-73
2021/12/26 04:31:22;;;;;;;9.70;5.70;;;2.70;99.90;;;;;;5027424;28;20505;-73
2021/12/26 04:33:49;;;;;;;9.20;4.43;;;2.60;99.90;;;;;;5009795;28;20463;-72
2021/12/26 04:36:17;;;;;;;10.07;6.83;;;2.70;99.90;;;;;;5011877;28;20459;-72
2021/12/26 04:38:43;;;;;;;7.90;4.83;;;2.70;99.90;;;;;;5003804;28;20593;-73
2021/12/26 04:41:10;;;;;;;7.90;5.00;;;2.60;99.90;;;;;;5008031;28;20523;-72
2021/12/26 04:43:55;;;;;;;12.27;5.70;;;2.60;99.90;;;;;;5008798;28;20307;-73
2021/12/26 04:46:40;;;;;;;10.37;5.30;;;2.60;99.90;;;;;;5009074;28;20862;-72
2021/12/26 04:49:11;;;;;;;8.50;5.00;;;2.60;99.90;;;;;;5002700;28;20467;-73
2021/12/26 04:51:36;;;;;;;9.10;4.47;;;2.60;99.90;;;;;;5009405;28;20456;-73
2021/12/26 04:54:04;;;;;;;9.40;5.37;;;2.60;99.90;;;;;;5010031;28;20220;-73
2021/12/26 04:56:32;;;;;;;8.47;5.50;;;2.60;99.90;;;;;;5011060;28;20462;-73
2021/12/26 04:58:59;;;;;;;15.57;5.73;;;2.60;99.90;;;;;;5014209;28;20454;-73
2021/12/26 05:01:25;;;;;;;9.07;5.10;;;2.70;99.90;;;;;;5013563;28;20223;-73
2021/12/26 05:03:51;;;;;;;7.47;4.50;;;2.70;99.90;;;;;;5019226;28;20470;-73
2021/12/26 05:06:17;;;;;;;9.97;6.07;;;2.70;99.90;;;;;;5010562;28;20455;-73
2021/12/26 05:08:43;;;;;;;8.50;4.67;;;2.60;99.90;;;;;;5009107;28;20557;-74
2021/12/26 05:11:09;;;;;;;10.37;5.43;;;2.60;99.90;;;;;;5027209;28;20286;-72
2021/12/26 05:13:34;;;;;;;14.13;5.20;;;2.60;99.90;;;;;;5027853;28;20230;-73
2021/12/26 05:16:00;;;;;;;10.70;5.93;;;2.60;99.90;;;;;;5026387;28;20224;-73
2021/12/26 05:18:26;;;;;;;11.10;5.67;;;2.60;99.90;;;;;;5010839;28;20223;-73
2021/12/26 05:20:56;;;;;;;11.30;6.40;;;2.60;99.90;;;;;;5025111;28;20767;-73
2021/12/26 05:23:23;;;;;;;7.53;5.73;;;2.60;99.90;;;;;;5010359;28;20470;-72
2021/12/26 05:25:49;;;;;;;11.20;5.40;;;2.60;99.90;;;;;;5008204;28;20232;-73
2021/12/26 05:28:15;;;;;;;9.17;4.90;;;2.60;99.90;;;;;;5025685;28;20467;-73
2021/12/26 05:30:42;;;;;;;8.90;5.60;;;2.60;99.90;;;;;;5003370;28;20282;-74
2021/12/26 05:33:15;;;;;;;12.03;6.37;;;2.60;99.90;;;;;;5003090;28;20466;-73
2021/12/26 05:35:42;;;;;;;12.60;5.80;;;2.60;99.90;;;;;;5008133;28;20459;-73
2021/12/26 05:38:08;;;;;;;9.10;5.67;;;2.60;99.90;;;;;;5006681;28;20467;-73
2021/12/26 05:40:35;;;;;;;9.17;5.63;;;2.60;99.90;;;;;;5008578;28;20254;-73
2021/12/26 05:43:01;;;;;;;8.40;4.90;;;2.60;99.90;;;;;;5007110;28;20458;-73
2021/12/26 05:45:26;;;;;;;9.13;5.53;;;2.60;99.90;;;;;;4993483;28;20225;-73
2021/12/26 05:48:10;;;;;;;7.13;4.77;;;2.60;99.90;;;;;;5009899;28;20232;-73
2021/12/26 05:50:36;;;;;;;11.73;5.90;;;2.60;99.90;;;;;;5026279;28;20474;-73
2021/12/26 05:53:02;;;;;;;9.70;5.80;;;2.60;99.90;;;;;;5007231;28;20300;-74
2021/12/26 05:55:29;;;;;;;9.57;5.30;;;2.60;99.90;;;;;;5009736;28;20463;-73
2021/12/26 05:57:54;;;;;;;7.80;4.93;;;2.60;99.90;;;;;;5008252;28;20462;-73
2021/12/26 06:00:21;;;;;;;7.20;4.93;;;2.60;99.90;;;;;;5016022;28;20272;-73
2021/12/26 06:02:50;;;;;;;8.40;5.47;;;2.60;99.90;;;;;;5022352;28;20286;-72
2021/12/26 06:05:17;;;;;;;10.70;5.60;;;2.60;99.90;;;;;;5009683;28;20470;-72
2021/12/26 06:07:44;;;;;;;11.20;6.30;;;2.70;99.90;;;;;;5024262;28;20495;-74
2021/12/26 06:10:10;;;;;;;9.53;5.43;;;2.60;99.90;;;;;;5010275;28;20989;-74
2021/12/26 06:12:38;;;;;;;8.47;5.03;;;2.60;99.90;;;;;;5009240;28;20556;-73
2021/12/26 06:15:05;;;;;;;13.50;5.37;;;2.60;99.90;;;;;;4993432;28;20487;-73
2021/12/26 06:17:34;;;;;;;7.47;4.53;;;2.60;99.90;;;;;;5008404;28;20460;-73
2021/12/26 06:20:18;;;;;;;8.40;5.20;;;2.60;99.90;;;;;;5012779;28;20474;-73
2021/12/26 06:22:54;;;;;;;10.27;5.90;;;2.60;99.90;;;;;;5022756;28;20474;-73
2021/12/26 06:25:39;;;;;;;9.30;5.60;;;2.60;99.90;;;;;;5010454;28;20466;-73
2021/12/26 06:28:18;;;;;;;11.40;5.73;;;2.60;99.90;;;;;;5009068;28;20477;-73
2021/12/26 06:31:04;;;;;;;8.97;5.17;;;2.60;99.90;;;;;;4995997;28;20456;-72
2021/12/26 06:33:52;;;;;;;12.17;5.43;;;2.60;99.90;;;;;;5003859;28;20474;-73
2021/12/26 06:36:57;;;;;;;10.60;5.93;;;2.70;99.90;;;;;;4982964;28;20519;-73
2021/12/26 06:39:41;;;;;;;9.83;5.40;;;2.60;99.90;;;;;;4966530;28;20571;-74
2021/12/26 06:42:46;;;;;;;10.30;6.83;;;2.60;99.90;;;;;;4957024;28;20476;-74
2021/12/26 06:45:30;;;;;;;11.47;5.67;;;2.60;99.90;;;;;;4970125;28;20557;-73
2021/12/26 06:48:14;;;;;;;8.37;5.37;;;2.60;99.90;;;;;;5002711;28;20532;-73
2021/12/26 06:50:44;;;;;;;8.37;4.93;;;2.60;99.90;;;;;;5011153;28;20463;-74
2021/12/26 06:53:11;;;;;;;9.63;4.90;;;2.60;99.90;;;;;;5013334;28;20459;-73
2021/12/26 06:55:37;;;;;;;10.20;5.90;;;2.60;99.90;;;;;;5012835;28;20498;-73
2021/12/26 06:58:03;;;;;;;8.57;5.37;;;2.60;99.90;;;;;;5012030;28;20458;-73
2021/12/26 07:00:29;;;;;;;9.67;5.97;;;2.60;99.90;;;;;;5021145;28;20450;-72
2021/12/26 07:02:55;;;;;;;5.90;4.20;;;2.60;99.90;;;;;;5010988;28;20528;-73
2021/12/26 07:05:20;;;;;;;9.67;5.40;;;2.70;99.90;;;;;;5012584;28;20315;-73
2021/12/26 07:07:58;;;;;;;11.67;5.40;;;2.60;99.90;;;;;;5006225;28;20759;-73
2021/12/26 07:10:24;;;;;;;8.43;5.50;;;2.60;99.90;;;;;;5009690;28;20466;-73
2021/12/26 07:12:51;;;;;;;9.93;5.77;;;2.70;99.90;;;;;;5030917;28;20461;-73
2021/12/26 07:15:43;;;;;;;13.00;6.57;;;2.70;99.90;;;;;;5032931;28;20978;-74
2021/12/26 07:18:09;;;;;;;12.20;5.70;;;2.70;99.90;;;;;;5013052;28;20450;-73
2021/12/26 07:20:38;;;;;;;9.80;6.27;;;2.60;99.90;;;;;;5012063;28;20616;-74
2021/12/26 07:23:27;;;;;;;6.07;4.50;;;2.60;99.90;;;;;;5021885;28;20585;-73
2021/12/26 07:25:59;;;;;;;11.50;5.30;;;2.60;99.90;;;;;;5010816;28;20455;-73
2021/12/26 07:28:25;;;;;;;11.87;5.93;;;2.60;99.90;;;;;;5012761;28;20486;-73
2021/12/26 07:30:56;;;;;;;9.80;5.77;;;2.60;99.90;;;;;;5011924;28;20512;-73
2021/12/26 07:33:22;;;;;;;13.23;6.20;;;2.60;99.90;;;;;;5024971;28;20940;-72
2021/12/26 07:35:51;;;;;;;8.03;5.17;;;2.60;99.90;;;;;;5010306;28;20467;-73
2021/12/26 07:38:51;;;;;;;9.10;5.23;;;2.60;99.90;;;;;;4971775;28;20486;-73
2021/12/26 07:41:17;;;;;;;14.47;5.77;;;2.60;99.90;;;;;;5029721;28;20955;-73
2021/12/26 07:43:42;;;;;;;11.70;6.97;;;2.60;99.90;;;;;;5007347;28;20593;-73
2021/12/26 07:46:17;;;;;;;9.07;5.80;;;2.60;99.90;;;;;;5010397;28;20228;-72
2021/12/26 07:48:43;;;;;;;11.33;6.10;;;2.60;99.90;;;;;;5009886;28;20490;-74
2021/12/26 07:51:10;;;;;;;13.17;6.40;;;2.60;99.90;;;;;;4995155;28;20216;-73
2021/12/26 07:53:59;;;;;;;10.70;5.93;;;2.60;99.90;;;;;;5013737;28;20474;-74
2021/12/26 07:56:44;;;;;;;11.27;5.37;;;2.60;99.90;;;;;;5012584;28;20569;-73
2021/12/26 07:59:28;;;;;;;8.97;5.83;;;2.60;99.90;;;;;;5033810;28;20461;-73
2021/12/26 08:02:17;;;;;;;23.13;10.77;;;2.70;99.90;;;;;;5025221;28;20461;-73
2021/12/26 08:05:21;;;;;;;22.00;12.23;;;2.70;99.90;;;;;;5049161;28;20474;-73
2021/12/26 08:07:58;;;;;;;27.80;14.13;;;2.60;99.90;;;;;;5013554;28;20474;-73
2021/12/26 08:10:24;;;;;;;18.90;10.93;;;2.60;99.90;;;;;;5024667;28;20468;-73
2021/12/26 08:12:50;;;;;;;18.03;11.03;;;2.60;99.90;;;;;;5001552;28;20468;-74
2021/12/26 08:15:15;;;;;;;17.67;9.77;;;2.60;99.90;;;;;;4994718;28;20476;-73
2021/12/26 08:17:41;;;;;;;14.80;8.00;;;2.60;99.90;;;;;;5026127;28;20502;-74
2021/12/26 08:20:08;;;;;;;13.97;7.73;;;2.60;99.90;;;;;;5011198;28;20303;-73
2021/12/26 08:22:34;;;;;;;13.40;7.60;;;2.60;99.90;;;;;;5007812;28;20237;-73
2021/12/26 08:25:00;;;;;;;12.73;7.73;;;2.60;99.90;;;;;;5008235;28;20838;-73
2021/12/26 08:27:26;;;;;;;12.70;7.10;;;2.60;99.90;;;;;;5010944;28;20482;-73
2021/12/26 08:29:51;;;;;;;14.30;7.30;;;2.60;99.90;;;;;;5008517;28;20221;-73
2021/12/26 08:32:18;;;;;;;9.47;5.37;;;2.60;99.90;;;;;;5007461;28;20709;-72
2021/12/26 08:34:45;;;;;;;10.03;5.90;;;2.60;99.90;;;;;;4989069;28;20283;-73
2021/12/26 08:37:12;;;;;;;11.80;6.97;;;2.60;99.90;;;;;;5002864;28;20451;-73
2021/12/26 08:39:40;;;;;;;10.80;6.93;;;2.60;99.90;;;;;;5008840;28;20456;-74
2021/12/26 08:42:10;;;;;;;12.97;8.27;;;2.60;99.90;;;;;;5017511;28;20452;-73
2021/12/26 08:44:36;;;;;;;11.17;7.00;;;2.60;99.90;;;;;;4991903;28;20471;-73
2021/12/26 08:47:04;;;;;;;13.73;7.20;;;2.60;99.90;;;;;;5007882;28;20478;-73
2021/12/26 08:49:30;;;;;;;13.13;7.30;;;2.60;99.90;;;;;;5010665;28;20460;-73
2021/12/26 08:51:56;;;;;;;15.00;7.07;;;2.60;99.90;;;;;;5007889;28;20513;-74
2021/12/26 08:54:26;;;;;;;12.60;6.63;;;2.60;99.90;;;;;;5010598;28;20224;-73
2021/12/26 08:56:53;;;;;;;8.37;5.00;;;2.60;99.90;;;;;;5009104;28;20467;-74
2021/12/26 08:59:19;;;;;;;12.53;6.83;;;2.60;99.90;;;;;;5007047;28;20464;-73
2021/12/26 09:01:46;;;;;;;17.43;9.07;;;2.60;99.90;;;;;;5006898;28;20844;-74
2021/12/26 09:04:12;;;;;;;19.67;9.30;;;2.60;99.90;;;;;;5028519;28;20459;-73
2021/12/26 09:06:38;;;;;;;12.97;7.77;;;2.60;99.90;;;;;;5027296;28;20470;-73
2021/12/26 09:09:04;;;;;;;22.37;14.17;;;2.60;99.90;;;;;;4993919;28;20448;-72
2021/12/26 09:11:30;;;;;;;30.10;24.07;;;2.60;99.90;;;;;;5012973;28;20455;-73
2021/12/26 09:13:56;;;;;;;27.63;19.23;;;2.60;99.90;;;;;;5026349;28;20998;-73
2021/12/26 09:16:22;;;;;;;24.43;16.23;;;2.60;99.90;;;;;;5026867;28;20493;-73
2021/12/26 09:18:50;;;;;;;17.70;10.97;;;2.60;99.90;;;;;;5008313;28;20248;-74
2021/12/26 09:21:16;;;;;;;13.70;7.97;;;2.60;99.90;;;;;;5010271;28;20458;-73
2021/12/26 09:23:48;;;;;;;14.97;8.73;;;2.60;99.90;;;;;;5076638;27;20559;-72
2021/12/26 09:26:13;;;;;;;12.33;6.67;;;2.60;99.90;;;;;;5086877;28;20554;-71
2021/12/26 09:28:39;;;;;;;11.03;6.10;;;2.60;99.90;;;;;;5061995;28;20310;-73
2021/12/26 09:31:05;;;;;;;13.93;6.73;;;2.60;99.90;;;;;;5063440;28;20661;-72
2021/12/26 09:33:31;;;;;;;10.67;6.87;;;2.60;99.90;;;;;;5043727;28;20219;-72
2021/12/26 09:35:56;;;;;;;11.47;7.20;;;2.60;99.90;;;;;;5061991;28;20227;-72
2021/12/26 09:38:22;;;;;;;10.77;6.77;;;2.60;99.90;;;;;;5066844;28;20219;-72
2021/12/26 09:40:48;;;;;;;9.70;5.83;;;2.60;99.90;;;;;;5044852;28;20221;-73
2021/12/26 09:43:14;;;;;;;12.30;6.73;;;2.70;99.90;;;;;;5045688;28;20306;-72
2021/12/26 09:45:40;;;;;;;17.17;10.07;;;2.70;99.90;;;;;;5093848;27;20230;-73
2021/12/26 09:48:05;;;;;;;19.17;9.50;;;2.60;99.90;;;;;;5074861;28;20289;-71
2021/12/26 09:50:31;;;;;;;21.80;13.57;;;2.70;99.90;;;;;;5088602;27;20214;-72
2021/12/26 09:52:57;;;;;;;45.83;22.97;;;2.70;99.90;;;;;;5062768;28;20296;-72
2021/12/26 09:55:27;;;;;;;59.90;29.47;;;2.70;99.90;;;;;;5062822;28;20234;-72
2021/12/26 09:57:52;;;;;;;41.73;22.10;;;2.70;99.90;;;;;;5044824;28;20219;-73
2021/12/26 10:00:20;;;;;;;21.80;13.60;;;2.70;99.90;;;;;;5079596;28;20477;-71
2021/12/26 10:02:46;;;;;;;15.77;8.93;;;2.70;99.90;;;;;;5057762;28;20294;-73
2021/12/26 10:05:12;;;;;;;13.03;8.13;;;2.70;99.90;;;;;;5049233;28;20919;-71
2021/12/26 10:07:38;;;;;;;13.13;8.23;;;2.60;99.90;;;;;;5084128;28;20266;-72
2021/12/26 10:10:07;;;;;;;14.77;7.33;;;2.70;99.90;;;;;;5061272;28;20225;-72
2021/12/26 10:12:40;;;;;;;13.00;7.87;;;2.70;99.90;;;;;;5082810;28;20831;-72
2021/12/26 10:15:07;;;;;;;13.00;8.17;;;2.70;99.90;;;;;;5102605;28;20971;-71
2021/12/26 10:17:34;;;;;;;12.23;6.47;;;2.70;99.90;;;;;;5102638;28;20509;-72
2021/12/26 10:20:09;;;;;;;11.00;6.90;;;2.70;99.90;;;;;;5077551;28;21001;-72
2021/12/26 10:22:35;;;;;;;13.13;6.93;;;2.70;99.90;;;;;;5075777;28;20556;-72
2021/12/26 10:25:14;;;;;;;10.73;6.40;;;2.70;99.90;;;;;;5043876;28;20965;-72
2021/12/26 10:27:41;;;;;;;13.90;6.80;;;2.70;99.90;;;;;;5058706;28;20457;-73
2021/12/26 10:30:11;;;;;;;9.67;6.30;;;2.70;99.90;;;;;;5058383;28;20458;-72
2021/12/26 10:32:38;;;;;;;10.43;6.73;;;2.70;99.90;;;;;;5069995;28;21012;-72
2021/12/26 10:35:13;;;;;;;10.27;6.90;;;2.80;99.90;;;;;;5052817;28;20469;-72
2021/12/26 10:37:45;;;;;;;6.60;4.83;;;2.80;99.90;;;;;;5024836;28;20461;-72
2021/12/26 10:40:16;;;;;;;9.57;5.97;;;2.80;99.90;;;;;;5028570;28;20520;-72
2021/12/26 10:42:51;;;;;;;11.87;5.80;;;2.80;99.90;;;;;;5035507;28;20497;-72
2021/12/26 10:45:20;;;;;;;14.07;7.10;;;2.80;99.90;;;;;;5069008;28;20473;-72
2021/12/26 10:47:52;;;;;;;15.67;8.67;;;2.80;99.90;;;;;;5039477;28;20486;-72
2021/12/26 10:50:24;;;;;;;14.00;7.60;;;2.80;99.90;;;;;;5071483;28;20449;-70
2021/12/26 10:52:58;;;;;;;15.50;7.53;;;2.80;99.90;;;;;;5047070;28;20470;-71
2021/12/26 10:55:36;;;;;;;13.60;7.07;;;2.80;99.90;;;;;;5056794;28;20462;-72
2021/12/26 10:58:14;;;;;;;11.57;7.20;;;2.80;99.90;;;;;;5038338;28;20455;-72
2021/12/26 11:00:43;;;;;;;15.30;6.90;;;2.80;99.90;;;;;;5064730;28;20454;-72
2021/12/26 11:03:22;;;;;;;13.20;6.40;;;2.80;99.90;;;;;;5035453;28;20475;-71
2021/12/26 11:05:50;;;;;;;10.83;7.17;;;2.80;99.90;;;;;;5036171;28;20465;-72
2021/12/26 11:08:26;;;;;;;10.93;6.43;;;2.80;99.90;;;;;;5025482;28;20524;-71
2021/12/26 11:10:54;;;;;;;11.53;6.70;;;2.80;99.90;;;;;;5045647;28;20549;-72
2021/12/26 11:13:28;;;;;;;14.13;6.80;;;2.80;99.90;;;;;;5057600;28;20457;-72
2021/12/26 11:16:00;;;;;;;7.97;6.03;;;2.80;99.90;;;;;;5027604;28;20504;-72
2021/12/26 11:18:26;;;;;;;11.20;6.10;;;2.80;99.90;;;;;;5073270;28;20524;-72
2021/12/26 11:21:00;;;;;;;10.87;6.33;;;2.80;99.90;;;;;;5035936;28;20558;-72
2021/12/26 11:23:33;;;;;;;10.53;5.50;;;2.80;99.90;;;;;;5060619;28;20477;-72
2021/12/26 11:26:02;;;;;;;9.57;6.53;;;2.90;99.90;;;;;;5049228;28;20468;-72
2021/12/26 11:28:34;;;;;;;11.60;7.17;;;2.90;99.90;;;;;;5049454;28;20459;-72
2021/12/26 11:31:12;;;;;;;11.90;6.77;;;2.90;99.90;;;;;;5048199;28;20458;-72
2021/12/26 11:33:39;;;;;;;13.60;6.97;;;2.90;99.90;;;;;;5038091;28;20913;-72
2021/12/26 11:36:08;;;;;;;10.07;6.20;;;2.90;99.90;;;;;;5064367;28;20829;-72
2021/12/26 11:38:33;;;;;;;14.20;7.53;;;2.90;99.90;;;;;;5059182;28;20452;-73
2021/12/26 11:41:41;;;;;;;14.83;7.43;;;2.90;99.90;;;;;;5056051;28;20473;-72
2021/12/26 11:45:00;;;;;;;14.33;8.03;;;2.90;99.90;;;;;;5069017;28;20467;-72
2021/12/26 11:47:58;;;;;;;12.10;6.70;;;2.90;99.90;;;;;;5052065;28;20547;-73
2021/12/26 11:51:17;;;;;;;11.23;6.93;;;2.90;99.90;;;;;;5064367;28;20504;-73
2021/12/26 11:54:07;;;;;;;12.70;6.83;;;2.90;99.90;;;;;;5045014;28;20926;-72
2021/12/26 11:56:49;;;;;;;10.40;5.60;;;3.00;99.90;;;;;;5085621;28;20527;-73
2021/12/26 11:59:36;;;;;;;18.30;6.77;;;2.90;99.90;;;;;;5062591;28;20450;-72
2021/12/26 12:02:02;;;;;;;13.27;7.07;;;2.90;99.90;;;;;;5028444;28;20470;-72
2021/12/26 12:04:28;;;;;;;19.73;8.30;;;2.90;99.90;;;;;;5041759;28;20554;-72
2021/12/26 12:06:56;;;;;;;13.70;7.00;;;2.90;99.90;;;;;;5053233;28;20215;-73
2021/12/26 12:09:31;;;;;;;12.47;6.90;;;2.90;99.90;;;;;;5030793;28;20224;-73
2021/12/26 12:12:05;;;;;;;8.13;6.07;;;2.90;99.90;;;;;;5026284;28;20463;-73
2021/12/26 12:14:56;;;;;;;12.50;6.03;;;3.00;99.90;;;;;;5052565;28;20469;-72
2021/12/26 12:17:30;;;;;;;13.13;6.93;;;3.00;99.90;;;;;;5041696;28;20459;-72
2021/12/26 12:20:12;;;;;;;15.97;8.67;;;3.00;99.90;;;;;;5046560;28;20510;-72
2021/12/26 12:23:04;;;;;;;12.10;7.23;;;3.00;99.90;;;;;;5039134;28;20490;-72
2021/12/26 12:25:36;;;;;;;12.23;6.77;;;3.00;99.90;;;;;;5029506;28;20465;-71
2021/12/26 12:28:13;;;;;;;17.67;9.50;;;3.00;99.90;;;;;;5028503;28;20458;-72
2021/12/26 12:30:42;;;;;;;14.93;8.67;;;3.00;99.90;;;;;;5061558;28;20960;-73
2021/12/26 12:33:30;;;;;;;16.10;9.30;;;3.00;99.90;;;;;;5072491;28;20922;-72
2021/12/26 12:35:58;;;;;;;15.90;8.57;;;3.00;99.90;;;;;;5024617;28;20505;-72
2021/12/26 12:38:33;;;;;;;12.17;7.20;;;3.00;99.90;;;;;;5043482;28;20545;-72
2021/12/26 12:41:01;;;;;;;12.33;7.50;;;3.00;99.90;;;;;;5079208;28;20991;-72
2021/12/26 12:43:28;;;;;;;13.00;7.10;;;3.00;99.90;;;;;;5055630;28;20478;-72
2021/12/26 12:45:54;;;;;;;12.67;7.30;;;3.00;99.90;;;;;;5046411;28;20462;-71
2021/12/26 12:48:27;;;;;;;13.40;7.80;;;3.00;99.90;;;;;;5029973;28;20469;-72
2021/12/26 12:51:00;;;;;;;11.43;6.27;;;3.00;99.90;;;;;;5060081;28;20214;-72
2021/12/26 12:53:42;;;;;;;16.33;7.73;;;3.00;99.90;;;;;;5076518;28;20484;-72
2021/12/26 12:56:33;;;;;;;11.43;7.40;;;3.00;99.90;;;;;;5071820;28;20460;-72
2021/12/26 12:59:19;;;;;;;17.63;8.37;;;3.00;99.90;;;;;;5065303;28;20524;-73
2021/12/26 13:01:56;;;;;;;16.43;8.00;;;3.00;99.90;;;;;;5027428;28;20522;-73
2021/12/26 13:04:28;;;;;;;11.23;6.67;;;3.00;99.90;;;;;;5046408;28;20855;-72
2021/12/26 13:07:03;;;;;;;11.60;7.07;;;3.00;99.90;;;;;;5053060;28;20523;-73
2021/12/26 13:09:31;;;;;;;12.97;7.20;;;3.10;99.90;;;;;;5046579;28;20838;-72
2021/12/26 13:12:10;;;;;;;14.20;7.90;;;3.10;99.90;;;;;;5044372;28;20553;-72
2021/12/26 13:14:48;;;;;;;13.13;6.47;;;3.10;99.90;;;;;;5046206;28;20468;-72